Meteo Giornale » Osservazioni meteo Italia » Grazzanise

ore: 00:55 - Osservazioni Meteo Grazzanise
Lat. 41° 3' N Lon. 14° 4' E Alt. 9 metri s.l.m.

sereno Europe/Rome

16 °C

Sereno

Temp. 24 Ore

15 °C

26 °C

Nord/Nord-Est

7.4 Km/h

Dew point 15 °C

Umidità 93 %

Visibilità  10 Km

Il sole sorge alle ore 07:17

Il sole tramonta alle ore 18:20

Data e Ora Cielo e Fenomeni T °C DP °C Um. % Pres. hPa Vis. km Vento km/h
Oggi h: 00:55 sereno Sereno 16 15 93 1019 10 N/NE 7.4
Ieri h: 23:55 sereno Sereno 16 15 93 1019 10 N/NE 7.4
Ieri h: 22:55 sereno Sereno 17 16 93 1019 10 N 5.5
Ieri h: 21:55 sereno Sereno 18 17 93 1019 10 N 5.5
Ieri h: 20:55 sereno Sereno 19 17 88 1019 10 N 5.5
Ieri h: 19:55 sereno Sereno 20 18 88 1019 10 N 3.7
Ieri h: 18:55 sereno Sereno 22 19 83 1019 10 N 5.5
Ieri h: 17:55 sereno Sereno 24 20 78 1019 10 O 9.3
Ieri h: 16:55 poco_nuvoloso Poco Nuvoloso 24 15 57 1019 10 O 13
Ieri h: 14:55 poco_nuvoloso Poco Nuvoloso 26 11 39 1019 10 O/SO 7.4
Ieri h: 13:55 poco_nuvoloso Poco Nuvoloso 25 12 44 1019 10 N 5.5
Ieri h: 12:55 poco_nuvoloso Poco Nuvoloso 25 12 44 1020 10 N 3.7
Ieri h: 11:55 poco_nuvoloso Poco Nuvoloso 24 14 53 1020 10 N 5.5
Ieri h: 10:55 poco_nuvoloso Poco Nuvoloso 21 16 73 1020 10 NE 11.1
Ieri h: 09:55 sereno Sereno 19 15 77 1020 10 NE 11.1
Ieri h: 08:55 sereno Sereno 17 14 82 1020 10 NE 9.3
Ieri h: 07:55 poco_nuvoloso Poco Nuvoloso 15 14 93 1019 10 NE 7.4
Ieri h: 06:55 sereno Sereno 15 14 93 1019 10 N 7.4
Ieri h: 05:55 sereno Sereno 15 14 93 1020 10 N/NE 7.4
Ieri h: 03:55 sereno Sereno 15 14 93 1020 10 N/NE 9.3
Ieri h: 02:55 sereno Sereno 16 15 93 1019 10 N/NE 9.3
Ieri h: 01:55 sereno Sereno 16 15 93 1019 10 N/NE 9.3